createdAt,value
2019-05-09T00:02:25.812Z,22.10
2019-05-09T00:04:55.073Z,22.10
2019-05-09T00:07:24.360Z,22.10
2019-05-09T00:09:53.672Z,22.10
2019-05-09T00:12:23.497Z,22.10
2019-05-09T00:14:54.016Z,22.10
2019-05-09T00:17:23.561Z,22.10
2019-05-09T00:19:54.471Z,22.10
2019-05-09T00:22:24.074Z,22.10
2019-05-09T00:24:53.934Z,22.10
2019-05-09T00:27:23.433Z,22.10
2019-05-09T00:29:53.280Z,22.10
2019-05-09T00:32:24.304Z,22.10
2019-05-09T00:34:58.229Z,22.10
2019-05-09T00:37:45.368Z,22.10
2019-05-09T00:40:14.655Z,22.10
2019-05-09T00:42:44.165Z,22.10
2019-05-09T00:45:21.092Z,22.10
2019-05-09T00:47:50.428Z,22.10
2019-05-09T00:50:19.732Z,22.10
2019-05-09T00:52:50.111Z,22.10
2019-05-09T00:55:19.364Z,22.10
2019-05-09T00:57:48.659Z,22.10
2019-05-09T01:00:18.624Z,22.10
2019-05-09T01:02:47.960Z,22.10
2019-05-09T01:05:17.216Z,22.10
2019-05-09T01:07:46.508Z,22.10
2019-05-09T01:10:15.786Z,22.10
2019-05-09T01:12:45.127Z,22.10
2019-05-09T01:15:14.432Z,22.10
2019-05-09T01:17:44.244Z,22.10
2019-05-09T01:20:14.686Z,22.10
2019-05-09T01:22:44.089Z,22.10
2019-05-09T01:25:14.501Z,22.10
2019-05-09T01:27:43.787Z,22.10
2019-05-09T01:30:13.545Z,22.10
2019-05-09T01:33:03.425Z,22.10
2019-05-09T01:35:33.997Z,22.10
2019-05-09T01:38:03.735Z,22.10
2019-05-09T01:40:33.287Z,22.10
2019-05-09T01:43:04.520Z,22.10
2019-05-09T01:45:34.202Z,22.10
2019-05-09T01:48:03.635Z,22.10
2019-05-09T01:50:34.066Z,22.10
2019-05-09T01:53:04.100Z,22.10
2019-05-09T01:55:53.806Z,22.10
2019-05-09T01:58:23.283Z,22.10
2019-05-09T02:00:53.993Z,22.10
2019-05-09T02:03:24.482Z,22.10
2019-05-09T02:05:53.749Z,22.10
2019-05-09T02:08:23.663Z,22.10
2019-05-09T02:10:54.192Z,22.10
2019-05-09T02:13:23.681Z,22.10
2019-05-09T02:16:10.853Z,22.10
2019-05-09T02:18:44.531Z,22.00
2019-05-09T02:21:14.518Z,22.00
2019-05-09T02:23:43.914Z,22.10
2019-05-09T02:26:13.728Z,22.10
2019-05-09T02:28:43.400Z,22.00
2019-05-09T02:31:16.213Z,22.00
2019-05-09T02:33:45.478Z,22.10
2019-05-09T02:36:14.964Z,22.00
2019-05-09T02:38:44.958Z,22.00
2019-05-09T02:41:14.217Z,22.10
2019-05-09T02:43:43.528Z,22.00
2019-05-09T02:46:14.412Z,22.00
2019-05-09T02:48:43.788Z,22.00
2019-05-09T02:51:13.071Z,22.00
2019-05-09T02:53:42.349Z,22.00
2019-05-09T02:56:11.633Z,22.00
2019-05-09T02:58:48.329Z,22.00
2019-05-09T03:01:20.484Z,22.10
2019-05-09T03:03:49.794Z,22.00
2019-05-09T03:06:19.761Z,22.00
2019-05-09T03:08:49.410Z,22.00
2019-05-09T03:11:18.980Z,22.00
2019-05-09T03:13:49.560Z,22.00
2019-05-09T03:16:19.328Z,22.00
2019-05-09T03:18:49.587Z,22.10
2019-05-09T03:21:29.636Z,22.00
2019-05-09T03:23:59.132Z,22.00
2019-05-09T03:26:30.107Z,22.00
2019-05-09T03:29:03.705Z,22.00
2019-05-09T03:31:34.654Z,22.00
2019-05-09T03:34:03.943Z,22.00
2019-05-09T03:36:33.202Z,22.00
2019-05-09T03:39:02.491Z,22.00
2019-05-09T03:41:31.759Z,22.00
2019-05-09T03:44:01.222Z,22.00
2019-05-09T03:46:34.832Z,22.00
2019-05-09T03:49:08.711Z,22.00
2019-05-09T03:51:38.060Z,22.00
2019-05-09T03:54:08.027Z,22.00
2019-05-09T03:56:42.155Z,22.00
2019-05-09T03:59:11.430Z,22.00
2019-05-09T04:01:40.813Z,22.00
2019-05-09T04:04:10.104Z,22.00
2019-05-09T04:06:39.510Z,22.00
2019-05-09T04:09:08.819Z,22.00
2019-05-09T04:11:38.263Z,22.00
2019-05-09T04:14:09.242Z,22.00
2019-05-09T04:16:38.532Z,22.00
2019-05-09T04:19:08.385Z,22.10
2019-05-09T04:21:38.386Z,22.00
2019-05-09T04:24:08.491Z,22.00
2019-05-09T04:26:48.506Z,22.10
2019-05-09T04:29:18.371Z,22.00
2019-05-09T04:31:48.401Z,22.00
2019-05-09T04:34:18.397Z,22.00
2019-05-09T04:36:48.385Z,22.00
2019-05-09T04:39:23.123Z,22.00
2019-05-09T04:41:49.015Z,22.10
2019-05-09T04:44:21.790Z,22.00
2019-05-09T04:46:54.146Z,22.00
2019-05-09T04:49:21.870Z,22.00
2019-05-09T04:51:51.187Z,22.10
2019-05-09T04:54:20.473Z,22.00
2019-05-09T04:56:49.771Z,22.10
2019-05-09T04:59:19.067Z,22.00
2019-05-09T05:01:52.986Z,22.00
2019-05-09T05:04:24.002Z,22.10
2019-05-09T05:06:53.382Z,22.10
2019-05-09T05:09:23.673Z,22.10
2019-05-09T05:11:52.964Z,22.10
2019-05-09T05:14:22.260Z,22.10
2019-05-09T05:16:53.832Z,22.10
2019-05-09T05:19:24.083Z,22.10
2019-05-09T05:21:55.200Z,22.00
2019-05-09T05:24:29.116Z,22.00
2019-05-09T05:26:58.388Z,22.00
2019-05-09T05:29:28.289Z,22.10
2019-05-09T05:31:59.653Z,22.10
2019-05-09T05:34:47.986Z,22.10
2019-05-09T05:37:17.721Z,22.10
2019-05-09T05:39:48.205Z,22.00
2019-05-09T05:42:17.650Z,22.00
2019-05-09T05:44:47.621Z,22.10
2019-05-09T05:47:21.586Z,22.00
2019-05-09T05:49:50.943Z,22.00
2019-05-09T05:52:20.247Z,22.00
2019-05-09T05:54:49.772Z,22.10
2019-05-09T05:57:19.024Z,22.00
2019-05-09T05:59:48.398Z,22.10
2019-05-09T06:02:17.912Z,22.10
2019-05-09T06:04:48.704Z,22.10
2019-05-09T06:07:18.553Z,22.10
2019-05-09T06:09:48.398Z,22.10
2019-05-09T06:12:18.533Z,22.10
2019-05-09T06:14:49.013Z,22.20
2019-05-09T06:17:18.291Z,22.20
2019-05-09T06:19:48.200Z,22.30
2019-05-09T06:22:18.622Z,22.30
2019-05-09T06:24:48.018Z,22.30
2019-05-09T06:27:18.235Z,22.30
2019-05-09T06:29:47.853Z,22.40
2019-05-09T06:32:18.898Z,22.40
2019-05-09T06:34:48.194Z,22.40
2019-05-09T06:37:18.400Z,22.40
2019-05-09T06:39:48.616Z,22.50
2019-05-09T06:42:18.333Z,22.50
2019-05-09T06:44:51.869Z,22.50
2019-05-09T06:47:27.738Z,22.50
2019-05-09T06:49:58.333Z,22.50
2019-05-09T06:52:28.243Z,22.50
2019-05-09T06:54:58.354Z,22.40
2019-05-09T06:57:28.234Z,22.50
2019-05-09T06:59:58.053Z,22.50
2019-05-09T07:02:29.135Z,22.40
2019-05-09T07:05:00.059Z,22.40
2019-05-09T07:07:32.076Z,22.40
2019-05-09T07:10:03.008Z,22.40
2019-05-09T07:12:32.338Z,22.50
2019-05-09T07:15:01.685Z,22.40
2019-05-09T07:17:32.214Z,22.50
2019-05-09T07:20:02.598Z,22.40
2019-05-09T07:22:33.693Z,22.40
2019-05-09T07:25:07.563Z,22.40
2019-05-09T07:27:43.394Z,22.40
2019-05-09T07:30:14.422Z,22.50
2019-05-09T07:33:02.073Z,22.50
2019-05-09T07:35:31.440Z,22.40
2019-05-09T07:38:00.731Z,22.50
2019-05-09T07:40:30.810Z,22.50
2019-05-09T07:43:01.491Z,22.50
2019-05-09T07:45:30.806Z,22.40
2019-05-09T07:48:00.115Z,22.50
2019-05-09T07:50:29.527Z,22.50
2019-05-09T07:52:59.633Z,22.50
2019-05-09T07:55:28.969Z,22.50
2019-05-09T07:57:59.926Z,22.50
2019-05-09T08:00:35.229Z,22.50
2019-05-09T08:03:04.575Z,22.50
2019-05-09T08:05:34.028Z,22.50
2019-05-09T08:08:07.971Z,22.50
2019-05-09T08:10:38.515Z,22.50
2019-05-09T08:13:11.521Z,22.60
2019-05-09T08:15:38.826Z,22.60
2019-05-09T08:18:08.744Z,22.60
2019-05-09T08:20:40.868Z,22.60
2019-05-09T08:23:11.059Z,22.60
2019-05-09T08:25:40.465Z,22.60
2019-05-09T08:28:09.875Z,22.60
2019-05-09T08:30:40.281Z,22.70
2019-05-09T08:33:10.378Z,22.70
2019-05-09T08:35:49.872Z,22.70
2019-05-09T08:38:17.843Z,22.70
2019-05-09T08:40:48.513Z,22.70
2019-05-09T08:43:19.905Z,22.70
2019-05-09T08:45:48.923Z,22.70
2019-05-09T08:48:18.452Z,22.70
2019-05-09T08:50:49.497Z,22.80
2019-05-09T08:53:19.053Z,22.80
2019-05-09T08:55:48.392Z,22.90
2019-05-09T08:58:19.804Z,22.90
2019-05-09T09:00:49.235Z,22.90
2019-05-09T09:03:19.594Z,22.90
2019-05-09T09:05:49.312Z,23.00
2019-05-09T09:08:18.787Z,22.90
2019-05-09T09:10:49.155Z,22.90
2019-05-09T09:13:18.510Z,22.90
2019-05-09T09:16:05.473Z,22.90
2019-05-09T09:18:18.949Z,22.90
2019-05-09T09:20:48.682Z,22.90
2019-05-09T09:23:18.322Z,22.90
2019-05-09T09:25:48.707Z,22.90
2019-05-09T09:28:18.473Z,22.90
2019-05-09T09:30:48.609Z,22.90
2019-05-09T09:33:17.883Z,22.90
2019-05-09T09:35:49.031Z,22.90
2019-05-09T09:38:18.012Z,22.90
2019-05-09T09:40:47.892Z,22.90
2019-05-09T09:43:17.721Z,22.90
2019-05-09T09:45:48.059Z,22.90
2019-05-09T09:48:18.281Z,23.00
2019-05-09T09:50:51.463Z,23.00
2019-05-09T09:53:19.560Z,23.00
2019-05-09T09:55:48.842Z,23.00
2019-05-09T09:58:18.939Z,23.00
2019-05-09T10:00:58.459Z,23.00
2019-05-09T10:03:27.356Z,23.00
2019-05-09T10:05:57.721Z,23.00
2019-05-09T10:08:27.464Z,23.00
2019-05-09T10:10:58.965Z,23.00
2019-05-09T10:13:28.630Z,23.00
2019-05-09T10:16:28.583Z,23.00
2019-05-09T10:18:52.923Z,23.00
2019-05-09T10:21:23.874Z,23.00
2019-05-09T10:23:53.170Z,23.10
2019-05-09T10:26:22.485Z,23.10
2019-05-09T10:28:51.719Z,23.10
2019-05-09T10:31:21.531Z,23.10
2019-05-09T10:33:50.970Z,23.10
2019-05-09T10:36:20.414Z,23.00
2019-05-09T10:38:49.848Z,23.00
2019-05-09T10:41:22.686Z,23.00
2019-05-09T10:43:53.962Z,23.00
2019-05-09T10:46:33.543Z,23.10
2019-05-09T10:49:03.333Z,23.00
2019-05-09T10:51:32.738Z,23.00
2019-05-09T10:54:01.938Z,23.00
2019-05-09T10:56:31.220Z,23.00
2019-05-09T10:59:00.433Z,23.00
2019-05-09T11:01:29.830Z,23.00
2019-05-09T11:03:59.363Z,23.00
2019-05-09T11:06:29.082Z,23.00
2019-05-09T11:08:58.782Z,23.00
2019-05-09T11:11:28.582Z,23.00
2019-05-09T11:14:01.033Z,23.00
2019-05-09T11:16:41.824Z,23.00
2019-05-09T11:19:04.359Z,23.00
2019-05-09T11:21:33.566Z,23.00
2019-05-09T11:24:02.794Z,23.00
2019-05-09T11:26:32.061Z,23.00
2019-05-09T11:29:01.346Z,23.00
2019-05-09T11:31:30.629Z,23.00
2019-05-09T11:33:59.935Z,23.00
2019-05-09T11:36:30.217Z,23.00
2019-05-09T11:39:00.801Z,23.00
2019-05-09T11:41:30.813Z,23.00
2019-05-09T11:44:00.768Z,23.10
2019-05-09T11:46:29.982Z,23.10
2019-05-09T11:48:59.633Z,23.10
2019-05-09T11:51:29.538Z,23.10
2019-05-09T11:53:58.901Z,23.10
2019-05-09T11:56:28.219Z,23.10
2019-05-09T11:58:57.880Z,23.10
2019-05-09T12:01:29.503Z,23.10
2019-05-09T12:03:59.718Z,23.10
2019-05-09T12:06:29.416Z,23.10
2019-05-09T12:08:59.057Z,23.10
2019-05-09T12:11:28.413Z,23.10
2019-05-09T12:13:58.364Z,23.10
2019-05-09T12:16:29.734Z,23.10
2019-05-09T12:18:58.961Z,23.10
2019-05-09T12:21:28.563Z,23.10
2019-05-09T12:23:58.497Z,23.10
2019-05-09T12:26:29.293Z,23.10
2019-05-09T12:29:01.983Z,23.10
2019-05-09T12:31:32.779Z,23.10
2019-05-09T12:34:02.053Z,23.10
2019-05-09T12:36:31.387Z,23.10
2019-05-09T12:39:00.960Z,23.10
2019-05-09T12:41:31.371Z,23.10
2019-05-09T12:44:01.170Z,23.10
2019-05-09T12:46:30.447Z,23.10
2019-05-09T12:48:59.647Z,23.10
2019-05-09T12:51:28.879Z,23.10
2019-05-09T12:53:58.194Z,23.10
2019-05-09T12:56:28.602Z,23.10
2019-05-09T12:58:58.160Z,23.10
2019-05-09T13:01:27.465Z,23.10
2019-05-09T13:03:58.341Z,23.10
2019-05-09T13:06:29.577Z,23.10
2019-05-09T13:08:58.793Z,23.10
2019-05-09T13:11:28.249Z,23.20
2019-05-09T13:13:57.500Z,23.20
2019-05-09T13:16:47.592Z,23.20
2019-05-09T13:19:09.678Z,23.20
2019-05-09T13:21:39.211Z,23.20
2019-05-09T13:24:09.312Z,23.20
2019-05-09T13:26:38.893Z,23.20
2019-05-09T13:29:08.352Z,23.20
2019-05-09T13:31:39.649Z,23.20
2019-05-09T13:34:09.128Z,23.20
2019-05-09T13:36:38.517Z,23.20
2019-05-09T13:39:09.654Z,23.20
2019-05-09T13:41:39.696Z,23.20
2019-05-09T13:44:13.591Z,23.20
2019-05-09T13:46:40.070Z,23.20
2019-05-09T13:49:14.868Z,23.20
2019-05-09T13:51:48.595Z,23.20
2019-05-09T13:54:12.773Z,23.20
2019-05-09T13:56:41.963Z,23.20
2019-05-09T13:59:11.178Z,23.20
2019-05-09T14:01:40.485Z,23.20
2019-05-09T14:04:09.797Z,23.20
2019-05-09T14:06:39.076Z,23.20
2019-05-09T14:09:10.110Z,23.20
2019-05-09T14:11:39.717Z,23.20
2019-05-09T14:14:08.967Z,23.20
2019-05-09T14:16:38.884Z,23.20
2019-05-09T14:19:29.885Z,23.20
2019-05-09T14:21:39.535Z,23.20
2019-05-09T14:24:14.831Z,23.20
2019-05-09T14:26:40.760Z,23.20
2019-05-09T14:29:12.638Z,23.20
2019-05-09T14:31:42.137Z,23.20
2019-05-09T14:34:12.375Z,23.20
2019-05-09T14:36:45.251Z,23.20
2019-05-09T14:39:12.657Z,23.20
2019-05-09T14:41:41.928Z,23.20
2019-05-09T14:44:11.174Z,23.20
2019-05-09T14:46:40.464Z,23.20
2019-05-09T14:49:09.695Z,23.20
2019-05-09T14:51:39.052Z,23.30
2019-05-09T14:54:08.609Z,23.20
2019-05-09T14:56:41.784Z,23.30
2019-05-09T14:59:10.773Z,23.30
2019-05-09T15:01:43.710Z,23.30
2019-05-09T15:04:10.904Z,23.20
2019-05-09T15:06:40.189Z,23.20
2019-05-09T15:09:09.491Z,23.20
2019-05-09T15:11:39.751Z,23.20
2019-05-09T15:14:09.186Z,23.20
2019-05-09T15:16:39.122Z,23.20
2019-05-09T15:19:08.704Z,23.20
2019-05-09T15:21:38.480Z,23.20
2019-05-09T15:24:09.516Z,23.20
2019-05-09T15:26:38.805Z,23.20
2019-05-09T15:29:11.257Z,23.20
2019-05-09T15:31:40.429Z,23.20
2019-05-09T15:34:10.528Z,23.20
2019-05-09T15:36:39.904Z,23.20
2019-05-09T15:39:09.151Z,23.20
2019-05-09T15:41:38.673Z,23.20
2019-05-09T15:44:08.631Z,23.20
2019-05-09T15:46:45.514Z,23.30
2019-05-09T15:49:14.720Z,23.20
2019-05-09T15:51:43.972Z,23.20
2019-05-09T15:54:13.502Z,23.20
2019-05-09T15:56:44.303Z,23.20
2019-05-09T15:59:13.745Z,23.20
2019-05-09T16:01:43.363Z,23.20
2019-05-09T16:04:17.560Z,23.20
2019-05-09T16:06:50.862Z,23.20
2019-05-09T16:09:21.186Z,23.20
2019-05-09T16:11:50.487Z,23.30
2019-05-09T16:14:19.742Z,23.20
2019-05-09T16:16:49.057Z,23.20
2019-05-09T16:19:19.305Z,23.20
2019-05-09T16:21:48.487Z,23.20
2019-05-09T16:24:18.782Z,23.20
2019-05-09T16:26:48.912Z,23.20
2019-05-09T16:29:18.394Z,23.20
2019-05-09T16:31:48.193Z,23.20
2019-05-09T16:34:17.956Z,23.20
2019-05-09T16:36:48.122Z,23.20
2019-05-09T16:39:18.245Z,23.20
2019-05-09T16:41:48.458Z,23.20
2019-05-09T16:44:25.917Z,23.20
2019-05-09T16:46:57.621Z,23.20
2019-05-09T16:49:29.353Z,23.20
2019-05-09T16:51:58.264Z,23.20
2019-05-09T16:54:29.270Z,23.20
2019-05-09T16:56:59.989Z,23.20
2019-05-09T16:59:29.553Z,23.20
2019-05-09T17:01:58.803Z,23.20
2019-05-09T17:04:27.999Z,23.20
2019-05-09T17:06:57.690Z,23.10
2019-05-09T17:09:28.587Z,23.10
2019-05-09T17:11:57.861Z,23.10
2019-05-09T17:14:28.338Z,23.10
2019-05-09T17:17:00.182Z,23.10
2019-05-09T17:19:32.479Z,23.10
2019-05-09T17:22:09.207Z,23.10
2019-05-09T17:24:39.345Z,23.10
2019-05-09T17:27:08.776Z,23.10
2019-05-09T17:29:39.288Z,23.00
2019-05-09T17:32:09.445Z,23.10
2019-05-09T17:34:42.231Z,23.00
2019-05-09T17:37:10.701Z,23.10
2019-05-09T17:39:39.885Z,23.10
2019-05-09T17:42:10.319Z,23.10
2019-05-09T17:44:39.635Z,23.00
2019-05-09T17:47:08.990Z,23.00
2019-05-09T17:49:38.180Z,23.00
2019-05-09T17:52:07.693Z,23.00
2019-05-09T17:54:37.898Z,23.00
2019-05-09T17:57:07.962Z,23.00
2019-05-09T17:59:39.289Z,23.00
2019-05-09T18:02:09.919Z,23.00
2019-05-09T18:04:39.259Z,23.00
2019-05-09T18:07:08.899Z,23.00
2019-05-09T18:09:38.177Z,23.00
2019-05-09T18:12:08.313Z,23.00
2019-05-09T18:14:38.695Z,23.00
2019-05-09T18:17:08.013Z,23.00
2019-05-09T18:19:38.656Z,23.00
2019-05-09T18:22:08.297Z,23.00
2019-05-09T18:24:37.749Z,23.00
2019-05-09T18:27:07.664Z,23.00
2019-05-09T18:29:38.119Z,23.00
2019-05-09T18:32:15.402Z,23.00
2019-05-09T18:34:44.590Z,23.00
2019-05-09T18:37:13.760Z,23.00
2019-05-09T18:39:42.936Z,23.00
2019-05-09T18:42:12.560Z,23.00
2019-05-09T18:44:41.839Z,23.00
2019-05-09T18:47:11.047Z,23.00
2019-05-09T18:49:40.225Z,23.00
2019-05-09T18:52:09.486Z,23.00
2019-05-09T18:54:38.829Z,23.00
2019-05-09T18:57:08.008Z,23.00
2019-05-09T18:59:37.285Z,22.90
2019-05-09T19:02:06.451Z,23.00
2019-05-09T19:04:35.599Z,23.00
2019-05-09T19:07:20.787Z,23.00
2019-05-09T19:09:35.773Z,23.00
2019-05-09T19:12:05.206Z,23.00
2019-05-09T19:14:34.488Z,22.90
2019-05-09T19:17:20.187Z,22.90
2019-05-09T19:19:51.048Z,22.90
2019-05-09T19:22:22.692Z,23.00
2019-05-09T19:24:52.219Z,22.90
2019-05-09T19:27:21.457Z,22.90
2019-05-09T19:29:50.747Z,22.90
2019-05-09T19:32:21.041Z,22.90
2019-05-09T19:34:50.266Z,22.90
2019-05-09T19:37:19.534Z,22.90
2019-05-09T19:39:48.708Z,22.90
2019-05-09T19:42:17.879Z,22.90
2019-05-09T19:44:47.141Z,22.90
2019-05-09T19:47:17.299Z,22.90
2019-05-09T19:49:46.559Z,22.90
2019-05-09T19:52:15.714Z,22.90
2019-05-09T19:54:44.897Z,22.90
2019-05-09T19:57:14.085Z,22.90
2019-05-09T19:59:43.349Z,22.90
2019-05-09T20:02:12.593Z,22.90
2019-05-09T20:04:41.969Z,22.90
2019-05-09T20:07:11.229Z,22.90
2019-05-09T20:09:42.040Z,22.90
2019-05-09T20:12:29.457Z,22.90
2019-05-09T20:15:00.340Z,22.90
2019-05-09T20:17:29.516Z,22.90
2019-05-09T20:19:58.701Z,22.90
2019-05-09T20:22:27.962Z,22.90
2019-05-09T20:24:57.247Z,22.90
2019-05-09T20:27:26.455Z,22.90
2019-05-09T20:29:55.716Z,22.90
2019-05-09T20:32:24.912Z,22.90
2019-05-09T20:34:54.214Z,22.90
2019-05-09T20:37:23.756Z,22.90
2019-05-09T20:39:53.138Z,22.90
2019-05-09T20:42:22.612Z,22.90
2019-05-09T20:44:52.081Z,22.90
2019-05-09T20:47:21.443Z,22.90
2019-05-09T20:49:50.845Z,22.90
2019-05-09T20:52:21.885Z,22.90
2019-05-09T20:54:51.448Z,22.90
2019-05-09T20:57:20.942Z,22.90
2019-05-09T20:59:50.332Z,22.90
2019-05-09T21:02:19.818Z,22.90
2019-05-09T21:04:49.199Z,22.90
2019-05-09T21:07:18.584Z,22.90
2019-05-09T21:09:47.928Z,22.90
2019-05-09T21:12:17.393Z,22.90
2019-05-09T21:14:46.846Z,22.90
2019-05-09T21:17:16.220Z,22.90
2019-05-09T21:19:45.668Z,22.90
2019-05-09T21:22:15.117Z,22.90
2019-05-09T21:24:44.538Z,22.90
2019-05-09T21:27:13.905Z,22.90
2019-05-09T21:29:43.352Z,22.90
2019-05-09T21:32:12.814Z,22.90
2019-05-09T21:34:42.079Z,22.80
2019-05-09T21:37:13.916Z,22.80
2019-05-09T21:39:42.207Z,22.80
2019-05-09T21:42:11.453Z,22.80
2019-05-09T21:44:40.745Z,22.80
2019-05-09T21:47:09.974Z,22.80
2019-05-09T21:49:39.249Z,22.80
2019-05-09T21:52:08.503Z,22.80
2019-05-09T21:54:37.796Z,22.80
2019-05-09T21:57:07.031Z,22.80
2019-05-09T21:59:36.444Z,22.80
2019-05-09T22:02:05.722Z,22.80
2019-05-09T22:04:34.973Z,22.80
2019-05-09T22:07:04.201Z,22.80
2019-05-09T22:09:33.450Z,22.80
2019-05-09T22:12:02.713Z,22.80
2019-05-09T22:14:32.028Z,22.80
2019-05-09T22:17:04.010Z,22.80
2019-05-09T22:19:33.267Z,22.80
2019-05-09T22:22:02.501Z,22.80
2019-05-09T22:24:31.749Z,22.80
2019-05-09T22:27:01.023Z,22.80
2019-05-09T22:29:30.291Z,22.80
2019-05-09T22:31:59.453Z,22.80
2019-05-09T22:34:28.657Z,22.80
2019-05-09T22:36:57.797Z,22.80
2019-05-09T22:39:27.001Z,22.80
2019-05-09T22:41:56.214Z,22.80
2019-05-09T22:44:25.395Z,22.80
2019-05-09T22:46:54.556Z,22.70
2019-05-09T22:49:23.734Z,22.70
2019-05-09T22:51:52.894Z,22.70
2019-05-09T22:54:22.094Z,22.80
2019-05-09T22:56:51.423Z,22.70
2019-05-09T22:59:20.587Z,22.70
2019-05-09T23:01:49.799Z,22.70
2019-05-09T23:04:19.039Z,22.70
2019-05-09T23:06:48.256Z,22.70
2019-05-09T23:09:17.512Z,22.70
2019-05-09T23:11:46.733Z,22.70
2019-05-09T23:14:16.098Z,22.70
2019-05-09T23:16:45.299Z,22.70
2019-05-09T23:19:14.535Z,22.70
2019-05-09T23:21:43.722Z,22.70
2019-05-09T23:24:27.481Z,22.70
2019-05-09T23:26:45.407Z,22.70
2019-05-09T23:29:14.607Z,22.70
2019-05-09T23:32:02.370Z,22.70
2019-05-09T23:34:31.581Z,22.70
2019-05-09T23:37:00.749Z,22.70
2019-05-09T23:39:31.633Z,22.70
2019-05-09T23:42:00.883Z,22.70
2019-05-09T23:44:30.193Z,22.70
2019-05-09T23:46:59.387Z,22.70
2019-05-09T23:49:28.622Z,22.70
2019-05-09T23:51:57.796Z,22.70
2019-05-09T23:54:46.898Z,22.70
2019-05-09T23:57:33.995Z,22.70
